sensor_id;sensor_type;location;lat;lon;timestamp;P1;durP1;ratioP1;P2;durP2;ratioP2
47161;SDS011;32921;53.256;8.198;2023-09-08T00:00:51;240.95;;;224.48;;
47161;SDS011;32921;53.256;8.198;2023-09-08T00:03:16;268.58;;;249.32;;
47161;SDS011;32921;53.256;8.198;2023-09-08T00:05:42;283.40;;;263.70;;
47161;SDS011;32921;53.256;8.198;2023-09-08T00:08:07;269.80;;;251.05;;
47161;SDS011;32921;53.256;8.198;2023-09-08T00:10:33;265.13;;;246.43;;
47161;SDS011;32921;53.256;8.198;2023-09-08T00:12:58;262.45;;;244.43;;
47161;SDS011;32921;53.256;8.198;2023-09-08T00:15:24;256.60;;;238.55;;
47161;SDS011;32921;53.256;8.198;2023-09-08T00:17:49;270.17;;;251.45;;
47161;SDS011;32921;53.256;8.198;2023-09-08T00:20:15;239.23;;;222.95;;
47161;SDS011;32921;53.256;8.198;2023-09-08T00:22:41;255.98;;;238.35;;
47161;SDS011;32921;53.256;8.198;2023-09-08T00:25:06;234.95;;;218.85;;
47161;SDS011;32921;53.256;8.198;2023-09-08T00:27:32;251.55;;;234.18;;
47161;SDS011;32921;53.256;8.198;2023-09-08T00:29:58;237.48;;;221.05;;
47161;SDS011;32921;53.256;8.198;2023-09-08T00:32:23;249.40;;;232.25;;
47161;SDS011;32921;53.256;8.198;2023-09-08T00:34:49;264.60;;;246.02;;
47161;SDS011;32921;53.256;8.198;2023-09-08T00:37:14;241.18;;;224.25;;
47161;SDS011;32921;53.256;8.198;2023-09-08T00:39:40;239.63;;;223.18;;
47161;SDS011;32921;53.256;8.198;2023-09-08T00:42:06;251.23;;;233.63;;
47161;SDS011;32921;53.256;8.198;2023-09-08T00:44:32;240.07;;;223.95;;
47161;SDS011;32921;53.256;8.198;2023-09-08T00:46:57;250.38;;;232.88;;
47161;SDS011;32921;53.256;8.198;2023-09-08T00:49:23;219.13;;;203.93;;
47161;SDS011;32921;53.256;8.198;2023-09-08T00:51:49;234.55;;;218.48;;
47161;SDS011;32921;53.256;8.198;2023-09-08T00:54:14;239.05;;;222.48;;
47161;SDS011;32921;53.256;8.198;2023-09-08T00:56:40;230.63;;;214.88;;
47161;SDS011;32921;53.256;8.198;2023-09-08T00:59:06;240.52;;;223.73;;
47161;SDS011;32921;53.256;8.198;2023-09-08T01:01:33;234.63;;;218.20;;
47161;SDS011;32921;53.256;8.198;2023-09-08T01:04:00;234.27;;;218.13;;
47161;SDS011;32921;53.256;8.198;2023-09-08T01:06:25;234.98;;;219.35;;
47161;SDS011;32921;53.256;8.198;2023-09-08T01:08:52;219.98;;;204.70;;
47161;SDS011;32921;53.256;8.198;2023-09-08T01:11:19;226.13;;;210.63;;
47161;SDS011;32921;53.256;8.198;2023-09-08T01:13:45;224.10;;;208.52;;
47161;SDS011;32921;53.256;8.198;2023-09-08T01:16:11;232.65;;;216.65;;
47161;SDS011;32921;53.256;8.198;2023-09-08T01:18:36;238.00;;;221.45;;
47161;SDS011;32921;53.256;8.198;2023-09-08T01:26:25;214.65;;;200.18;;
47161;SDS011;32921;53.256;8.198;2023-09-08T01:28:53;226.30;;;210.75;;
47161;SDS011;32921;53.256;8.198;2023-09-08T01:31:20;215.90;;;200.90;;
47161;SDS011;32921;53.256;8.198;2023-09-08T01:33:46;214.55;;;199.82;;
47161;SDS011;32921;53.256;8.198;2023-09-08T01:36:12;225.50;;;209.77;;
47161;SDS011;32921;53.256;8.198;2023-09-08T01:38:39;221.90;;;206.85;;
47161;SDS011;32921;53.256;8.198;2023-09-08T01:41:04;212.15;;;197.43;;
47161;SDS011;32921;53.256;8.198;2023-09-08T01:43:30;207.95;;;193.65;;
47161;SDS011;32921;53.256;8.198;2023-09-08T01:45:56;235.57;;;219.27;;
47161;SDS011;32921;53.256;8.198;2023-09-08T01:48:21;229.85;;;213.98;;
47161;SDS011;32921;53.256;8.198;2023-09-08T01:50:47;227.07;;;211.45;;
47161;SDS011;32921;53.256;8.198;2023-09-08T01:53:12;217.52;;;202.43;;
47161;SDS011;32921;53.256;8.198;2023-09-08T01:55:38;221.80;;;206.68;;
47161;SDS011;32921;53.256;8.198;2023-09-08T01:58:04;218.13;;;203.30;;
47161;SDS011;32921;53.256;8.198;2023-09-08T02:00:29;224.00;;;208.32;;
47161;SDS011;32921;53.256;8.198;2023-09-08T02:02:55;232.93;;;217.02;;
47161;SDS011;32921;53.256;8.198;2023-09-08T02:05:20;228.93;;;213.27;;
47161;SDS011;32921;53.256;8.198;2023-09-08T02:07:46;228.18;;;212.50;;
47161;SDS011;32921;53.256;8.198;2023-09-08T02:10:11;220.90;;;205.52;;
47161;SDS011;32921;53.256;8.198;2023-09-08T02:12:37;235.35;;;219.02;;
47161;SDS011;32921;53.256;8.198;2023-09-08T02:15:02;209.45;;;195.10;;
47161;SDS011;32921;53.256;8.198;2023-09-08T02:17:29;214.57;;;199.95;;
47161;SDS011;32921;53.256;8.198;2023-09-08T02:19:55;210.10;;;195.80;;
47161;SDS011;32921;53.256;8.198;2023-09-08T02:22:21;212.88;;;198.32;;
47161;SDS011;32921;53.256;8.198;2023-09-08T02:24:46;206.60;;;192.68;;
47161;SDS011;32921;53.256;8.198;2023-09-08T02:27:12;214.15;;;199.77;;
47161;SDS011;32921;53.256;8.198;2023-09-08T02:29:37;219.93;;;204.90;;
47161;SDS011;32921;53.256;8.198;2023-09-08T02:32:03;198.90;;;185.70;;
47161;SDS011;32921;53.256;8.198;2023-09-08T02:34:29;198.82;;;185.48;;
47161;SDS011;32921;53.256;8.198;2023-09-08T02:36:54;199.95;;;186.27;;
47161;SDS011;32921;53.256;8.198;2023-09-08T02:39:20;206.63;;;192.70;;
47161;SDS011;32921;53.256;8.198;2023-09-08T02:41:45;201.38;;;187.68;;
47161;SDS011;32921;53.256;8.198;2023-09-08T02:44:11;197.23;;;183.95;;
47161;SDS011;32921;53.256;8.198;2023-09-08T02:46:37;210.45;;;196.30;;
47161;SDS011;32921;53.256;8.198;2023-09-08T02:49:03;194.65;;;181.35;;
47161;SDS011;32921;53.256;8.198;2023-09-08T02:51:28;204.65;;;190.80;;
47161;SDS011;32921;53.256;8.198;2023-09-08T02:53:54;199.50;;;186.13;;
47161;SDS011;32921;53.256;8.198;2023-09-08T02:56:19;198.32;;;185.13;;
47161;SDS011;32921;53.256;8.198;2023-09-08T02:58:45;202.40;;;188.55;;
47161;SDS011;32921;53.256;8.198;2023-09-08T03:01:14;216.68;;;202.07;;
47161;SDS011;32921;53.256;8.198;2023-09-08T03:03:41;214.65;;;199.93;;
47161;SDS011;32921;53.256;8.198;2023-09-08T03:06:07;222.80;;;207.63;;
47161;SDS011;32921;53.256;8.198;2023-09-08T03:08:33;204.77;;;191.15;;
47161;SDS011;32921;53.256;8.198;2023-09-08T03:11:01;180.32;;;168.25;;
47161;SDS011;32921;53.256;8.198;2023-09-08T03:13:27;221.20;;;205.93;;
47161;SDS011;32921;53.256;8.198;2023-09-08T03:15:54;202.85;;;189.25;;
47161;SDS011;32921;53.256;8.198;2023-09-08T03:18:20;203.20;;;189.43;;
47161;SDS011;32921;53.256;8.198;2023-09-08T03:20:49;192.63;;;179.55;;
47161;SDS011;32921;53.256;8.198;2023-09-08T03:23:15;194.70;;;181.52;;
47161;SDS011;32921;53.256;8.198;2023-09-08T03:25:41;207.13;;;193.15;;
47161;SDS011;32921;53.256;8.198;2023-09-08T03:28:07;202.35;;;188.68;;
47161;SDS011;32921;53.256;8.198;2023-09-08T03:30:32;201.07;;;187.25;;
47161;SDS011;32921;53.256;8.198;2023-09-08T03:32:58;182.25;;;170.23;;
47161;SDS011;32921;53.256;8.198;2023-09-08T03:35:23;177.13;;;165.10;;
47161;SDS011;32921;53.256;8.198;2023-09-08T03:37:49;186.10;;;173.75;;
47161;SDS011;32921;53.256;8.198;2023-09-08T03:40:14;194.55;;;181.48;;
47161;SDS011;32921;53.256;8.198;2023-09-08T03:42:40;175.38;;;163.63;;
47161;SDS011;32921;53.256;8.198;2023-09-08T03:45:07;194.88;;;181.40;;
47161;SDS011;32921;53.256;8.198;2023-09-08T03:47:33;196.93;;;183.73;;
47161;SDS011;32921;53.256;8.198;2023-09-08T03:49:58;186.85;;;174.50;;
47161;SDS011;32921;53.256;8.198;2023-09-08T03:52:24;199.00;;;185.80;;
47161;SDS011;32921;53.256;8.198;2023-09-08T03:54:50;202.60;;;189.07;;
47161;SDS011;32921;53.256;8.198;2023-09-08T03:57:15;193.10;;;180.10;;
47161;SDS011;32921;53.256;8.198;2023-09-08T03:59:41;190.73;;;178.05;;
47161;SDS011;32921;53.256;8.198;2023-09-08T04:02:06;183.95;;;171.90;;
47161;SDS011;32921;53.256;8.198;2023-09-08T04:04:32;186.63;;;174.07;;
47161;SDS011;32921;53.256;8.198;2023-09-08T04:06:57;175.45;;;163.98;;
47161;SDS011;32921;53.256;8.198;2023-09-08T04:09:23;196.90;;;183.57;;
47161;SDS011;32921;53.256;8.198;2023-09-08T04:11:49;179.65;;;167.48;;
47161;SDS011;32921;53.256;8.198;2023-09-08T04:14:14;183.93;;;171.63;;
47161;SDS011;32921;53.256;8.198;2023-09-08T04:16:40;187.38;;;175.15;;
47161;SDS011;32921;53.256;8.198;2023-09-08T04:19:05;186.00;;;173.80;;
47161;SDS011;32921;53.256;8.198;2023-09-08T04:21:31;191.55;;;178.85;;
47161;SDS011;32921;53.256;8.198;2023-09-08T04:23:56;190.05;;;177.40;;
47161;SDS011;32921;53.256;8.198;2023-09-08T04:26:22;185.20;;;172.68;;
47161;SDS011;32921;53.256;8.198;2023-09-08T04:28:47;172.82;;;161.35;;
47161;SDS011;32921;53.256;8.198;2023-09-08T04:31:13;186.85;;;174.55;;
47161;SDS011;32921;53.256;8.198;2023-09-08T04:33:38;189.88;;;176.90;;
47161;SDS011;32921;53.256;8.198;2023-09-08T04:36:04;179.65;;;167.77;;
47161;SDS011;32921;53.256;8.198;2023-09-08T04:38:30;173.45;;;161.88;;
47161;SDS011;32921;53.256;8.198;2023-09-08T04:40:55;186.43;;;173.77;;
47161;SDS011;32921;53.256;8.198;2023-09-08T04:43:21;173.18;;;161.55;;
47161;SDS011;32921;53.256;8.198;2023-09-08T04:45:46;162.25;;;151.45;;
47161;SDS011;32921;53.256;8.198;2023-09-08T04:48:12;164.38;;;153.38;;
47161;SDS011;32921;53.256;8.198;2023-09-08T04:50:37;175.65;;;164.13;;
47161;SDS011;32921;53.256;8.198;2023-09-08T04:53:03;171.50;;;160.23;;
47161;SDS011;32921;53.256;8.198;2023-09-08T04:55:28;171.50;;;159.88;;
47161;SDS011;32921;53.256;8.198;2023-09-08T04:57:54;171.23;;;159.93;;
47161;SDS011;32921;53.256;8.198;2023-09-08T05:00:20;166.43;;;155.35;;
47161;SDS011;32921;53.256;8.198;2023-09-08T05:02:45;178.45;;;166.48;;
47161;SDS011;32921;53.256;8.198;2023-09-08T05:05:11;166.77;;;155.50;;
47161;SDS011;32921;53.256;8.198;2023-09-08T05:07:36;170.20;;;158.90;;
47161;SDS011;32921;53.256;8.198;2023-09-08T05:10:02;161.38;;;150.85;;
47161;SDS011;32921;53.256;8.198;2023-09-08T05:12:28;182.48;;;170.15;;
47161;SDS011;32921;53.256;8.198;2023-09-08T05:14:53;175.43;;;163.68;;
47161;SDS011;32921;53.256;8.198;2023-09-08T05:17:23;153.27;;;143.23;;
47161;SDS011;32921;53.256;8.198;2023-09-08T05:19:48;155.43;;;144.88;;
47161;SDS011;32921;53.256;8.198;2023-09-08T05:22:14;161.10;;;150.00;;
47161;SDS011;32921;53.256;8.198;2023-09-08T05:24:39;165.88;;;154.65;;
47161;SDS011;32921;53.256;8.198;2023-09-08T05:27:05;170.70;;;159.27;;
47161;SDS011;32921;53.256;8.198;2023-09-08T05:29:31;177.40;;;165.68;;
47161;SDS011;32921;53.256;8.198;2023-09-08T05:31:56;175.73;;;163.85;;
47161;SDS011;32921;53.256;8.198;2023-09-08T05:34:22;167.93;;;156.57;;
47161;SDS011;32921;53.256;8.198;2023-09-08T05:36:47;161.52;;;150.48;;
47161;SDS011;32921;53.256;8.198;2023-09-08T05:39:14;169.20;;;157.68;;
47161;SDS011;32921;53.256;8.198;2023-09-08T05:41:40;167.55;;;156.43;;
47161;SDS011;32921;53.256;8.198;2023-09-08T05:44:06;180.90;;;168.75;;
47161;SDS011;32921;53.256;8.198;2023-09-08T05:46:31;173.30;;;161.30;;
47161;SDS011;32921;53.256;8.198;2023-09-08T05:48:57;177.32;;;165.25;;
47161;SDS011;32921;53.256;8.198;2023-09-08T05:51:22;172.30;;;160.55;;
47161;SDS011;32921;53.256;8.198;2023-09-08T05:53:48;163.20;;;152.40;;
47161;SDS011;32921;53.256;8.198;2023-09-08T05:56:14;177.90;;;166.07;;
47161;SDS011;32921;53.256;8.198;2023-09-08T05:58:39;182.50;;;169.88;;
47161;SDS011;32921;53.256;8.198;2023-09-08T06:01:05;194.50;;;181.07;;
47161;SDS011;32921;53.256;8.198;2023-09-08T06:03:32;198.15;;;184.38;;
47161;SDS011;32921;53.256;8.198;2023-09-08T06:05:58;181.20;;;168.90;;
47161;SDS011;32921;53.256;8.198;2023-09-08T06:08:24;192.73;;;179.35;;
47161;SDS011;32921;53.256;8.198;2023-09-08T06:10:50;208.32;;;193.63;;
47161;SDS011;32921;53.256;8.198;2023-09-08T06:13:15;197.20;;;183.50;;
47161;SDS011;32921;53.256;8.198;2023-09-08T06:15:41;216.52;;;201.15;;
47161;SDS011;32921;53.256;8.198;2023-09-08T06:18:06;217.27;;;201.80;;
47161;SDS011;32921;53.256;8.198;2023-09-08T06:20:33;212.40;;;197.55;;
47161;SDS011;32921;53.256;8.198;2023-09-08T06:22:58;211.63;;;196.77;;
47161;SDS011;32921;53.256;8.198;2023-09-08T06:25:24;217.00;;;201.65;;
47161;SDS011;32921;53.256;8.198;2023-09-08T06:27:50;238.40;;;220.85;;
47161;SDS011;32921;53.256;8.198;2023-09-08T06:30:15;198.60;;;184.40;;
47161;SDS011;32921;53.256;8.198;2023-09-08T06:32:43;241.00;;;222.63;;
47161;SDS011;32921;53.256;8.198;2023-09-08T06:35:08;227.13;;;210.50;;
47161;SDS011;32921;53.256;8.198;2023-09-08T06:37:37;228.63;;;211.75;;
47161;SDS011;32921;53.256;8.198;2023-09-08T06:40:03;236.50;;;218.73;;
47161;SDS011;32921;53.256;8.198;2023-09-08T06:42:30;232.30;;;215.05;;
47161;SDS011;32921;53.256;8.198;2023-09-08T06:44:56;227.98;;;211.05;;
47161;SDS011;32921;53.256;8.198;2023-09-08T06:47:21;258.77;;;238.90;;
47161;SDS011;32921;53.256;8.198;2023-09-08T06:49:47;274.33;;;252.93;;
47161;SDS011;32921;53.256;8.198;2023-09-08T06:52:12;273.00;;;251.32;;
47161;SDS011;32921;53.256;8.198;2023-09-08T06:54:38;268.38;;;247.27;;
47161;SDS011;32921;53.256;8.198;2023-09-08T06:57:04;295.48;;;271.88;;
47161;SDS011;32921;53.256;8.198;2023-09-08T06:59:29;292.27;;;269.10;;
47161;SDS011;32921;53.256;8.198;2023-09-08T07:01:55;308.67;;;284.00;;
47161;SDS011;32921;53.256;8.198;2023-09-08T07:04:20;314.05;;;289.92;;
47161;SDS011;32921;53.256;8.198;2023-09-08T07:06:46;337.13;;;311.92;;
47161;SDS011;32921;53.256;8.198;2023-09-08T07:09:12;347.23;;;321.02;;
47161;SDS011;32921;53.256;8.198;2023-09-08T07:11:37;383.75;;;354.13;;
47161;SDS011;32921;53.256;8.198;2023-09-08T07:14:03;454.80;;;418.88;;
47161;SDS011;32921;53.256;8.198;2023-09-08T07:16:28;460.23;;;422.83;;
47161;SDS011;32921;53.256;8.198;2023-09-08T07:18:54;482.08;;;443.45;;
47161;SDS011;32921;53.256;8.198;2023-09-08T07:21:20;510.40;;;469.75;;
47161;SDS011;32921;53.256;8.198;2023-09-08T07:23:45;483.20;;;445.27;;
47161;SDS011;32921;53.256;8.198;2023-09-08T07:26:11;557.53;;;513.25;;
47161;SDS011;32921;53.256;8.198;2023-09-08T07:28:37;559.58;;;516.00;;
47161;SDS011;32921;53.256;8.198;2023-09-08T07:31:03;580.35;;;532.10;;
47161;SDS011;32921;53.256;8.198;2023-09-08T07:33:30;578.47;;;530.72;;
47161;SDS011;32921;53.256;8.198;2023-09-08T07:35:56;586.85;;;537.80;;
47161;SDS011;32921;53.256;8.198;2023-09-08T07:38:22;615.60;;;567.20;;
47161;SDS011;32921;53.256;8.198;2023-09-08T07:40:47;621.75;;;573.25;;
47161;SDS011;32921;53.256;8.198;2023-09-08T07:43:13;603.38;;;554.80;;
47161;SDS011;32921;53.256;8.198;2023-09-08T07:45:38;618.17;;;568.30;;
47161;SDS011;32921;53.256;8.198;2023-09-08T07:48:05;605.40;;;557.33;;
47161;SDS011;32921;53.256;8.198;2023-09-08T07:50:31;581.15;;;534.33;;
47161;SDS011;32921;53.256;8.198;2023-09-08T07:52:57;588.78;;;540.63;;
47161;SDS011;32921;53.256;8.198;2023-09-08T07:55:23;601.67;;;553.17;;
47161;SDS011;32921;53.256;8.198;2023-09-08T07:57:49;588.80;;;541.85;;
47161;SDS011;32921;53.256;8.198;2023-09-08T08:00:15;598.53;;;550.13;;
47161;SDS011;32921;53.256;8.198;2023-09-08T08:02:46;569.40;;;522.10;;
47161;SDS011;32921;53.256;8.198;2023-09-08T08:05:15;546.60;;;501.10;;
47161;SDS011;32921;53.256;8.198;2023-09-08T08:07:41;531.33;;;487.13;;
47161;SDS011;32921;53.256;8.198;2023-09-08T08:10:08;537.40;;;492.25;;
47161;SDS011;32921;53.256;8.198;2023-09-08T08:12:35;515.47;;;472.15;;
47161;SDS011;32921;53.256;8.198;2023-09-08T08:15:01;518.63;;;474.58;;
47161;SDS011;32921;53.256;8.198;2023-09-08T08:17:27;500.23;;;456.90;;
47161;SDS011;32921;53.256;8.198;2023-09-08T08:19:56;536.13;;;488.98;;
47161;SDS011;32921;53.256;8.198;2023-09-08T08:22:23;522.10;;;475.60;;
47161;SDS011;32921;53.256;8.198;2023-09-08T08:24:51;521.28;;;473.23;;
47161;SDS011;32921;53.256;8.198;2023-09-08T08:27:17;535.10;;;487.02;;
47161;SDS011;32921;53.256;8.198;2023-09-08T08:29:42;532.70;;;484.27;;
47161;SDS011;32921;53.256;8.198;2023-09-08T08:32:08;515.80;;;468.88;;
47161;SDS011;32921;53.256;8.198;2023-09-08T08:34:34;544.13;;;494.65;;
47161;SDS011;32921;53.256;8.198;2023-09-08T08:37:00;566.75;;;513.47;;
47161;SDS011;32921;53.256;8.198;2023-09-08T08:39:25;606.15;;;548.97;;
47161;SDS011;32921;53.256;8.198;2023-09-08T08:41:51;587.15;;;532.45;;
47161;SDS011;32921;53.256;8.198;2023-09-08T08:44:17;592.15;;;536.80;;
47161;SDS011;32921;53.256;8.198;2023-09-08T08:46:43;594.75;;;540.08;;
47161;SDS011;32921;53.256;8.198;2023-09-08T08:49:11;552.42;;;502.35;;
47161;SDS011;32921;53.256;8.198;2023-09-08T08:51:42;554.55;;;503.13;;
47161;SDS011;32921;53.256;8.198;2023-09-08T08:54:10;541.85;;;491.10;;
47161;SDS011;32921;53.256;8.198;2023-09-08T08:56:37;583.92;;;531.75;;
47161;SDS011;32921;53.256;8.198;2023-09-08T08:59:03;559.30;;;509.38;;
47161;SDS011;32921;53.256;8.198;2023-09-08T09:01:29;529.97;;;482.08;;
47161;SDS011;32921;53.256;8.198;2023-09-08T09:03:56;575.80;;;524.33;;
47161;SDS011;32921;53.256;8.198;2023-09-08T09:06:22;535.53;;;486.77;;
47161;SDS011;32921;53.256;8.198;2023-09-08T09:08:48;523.95;;;476.60;;
47161;SDS011;32921;53.256;8.198;2023-09-08T09:11:14;516.85;;;469.52;;
47161;SDS011;32921;53.256;8.198;2023-09-08T09:13:40;545.05;;;496.48;;
47161;SDS011;32921;53.256;8.198;2023-09-08T09:16:06;522.88;;;475.17;;
47161;SDS011;32921;53.256;8.198;2023-09-08T09:18:45;522.65;;;475.40;;
47161;SDS011;32921;53.256;8.198;2023-09-08T09:21:19;492.52;;;447.67;;
47161;SDS011;32921;53.256;8.198;2023-09-08T09:23:45;513.22;;;466.10;;
47161;SDS011;32921;53.256;8.198;2023-09-08T09:26:10;537.70;;;488.13;;
47161;SDS011;32921;53.256;8.198;2023-09-08T09:28:51;532.58;;;483.35;;
47161;SDS011;32921;53.256;8.198;2023-09-08T09:31:18;593.60;;;539.67;;
47161;SDS011;32921;53.256;8.198;2023-09-08T09:33:47;549.53;;;499.55;;
47161;SDS011;32921;53.256;8.198;2023-09-08T09:36:20;546.58;;;496.92;;
47161;SDS011;32921;53.256;8.198;2023-09-08T09:38:46;588.88;;;535.45;;
47161;SDS011;32921;53.256;8.198;2023-09-08T09:41:12;567.50;;;516.42;;
47161;SDS011;32921;53.256;8.198;2023-09-08T09:43:37;590.38;;;537.88;;
47161;SDS011;32921;53.256;8.198;2023-09-08T09:46:03;618.72;;;565.22;;
47161;SDS011;32921;53.256;8.198;2023-09-08T09:48:33;573.22;;;524.13;;
47161;SDS011;32921;53.256;8.198;2023-09-08T09:51:14;643.92;;;588.75;;
47161;SDS011;32921;53.256;8.198;2023-09-08T09:53:41;638.83;;;584.13;;
47161;SDS011;32921;53.256;8.198;2023-09-08T09:56:08;604.40;;;554.85;;
47161;SDS011;32921;53.256;8.198;2023-09-08T09:58:34;613.08;;;561.95;;
47161;SDS011;32921;53.256;8.198;2023-09-08T10:01:01;611.72;;;562.03;;
47161;SDS011;32921;53.256;8.198;2023-09-08T10:03:27;627.22;;;574.75;;
47161;SDS011;32921;53.256;8.198;2023-09-08T10:05:53;602.20;;;550.38;;
47161;SDS011;32921;53.256;8.198;2023-09-08T10:08:19;657.47;;;599.65;;
47161;SDS011;32921;53.256;8.198;2023-09-08T10:10:45;622.78;;;567.28;;
47161;SDS011;32921;53.256;8.198;2023-09-08T10:13:12;609.08;;;556.95;;
47161;SDS011;32921;53.256;8.198;2023-09-08T10:15:42;627.08;;;573.65;;
47161;SDS011;32921;53.256;8.198;2023-09-08T10:18:08;609.78;;;556.13;;
47161;SDS011;32921;53.256;8.198;2023-09-08T10:20:36;590.78;;;537.55;;
47161;SDS011;32921;53.256;8.198;2023-09-08T10:23:06;579.60;;;527.05;;
47161;SDS011;32921;53.256;8.198;2023-09-08T10:25:37;616.78;;;559.08;;
47161;SDS011;32921;53.256;8.198;2023-09-08T10:28:08;568.00;;;513.90;;
47161;SDS011;32921;53.256;8.198;2023-09-08T10:30:34;571.45;;;519.38;;
47161;SDS011;32921;53.256;8.198;2023-09-08T10:33:00;569.83;;;513.45;;
47161;SDS011;32921;53.256;8.198;2023-09-08T10:35:27;595.78;;;532.78;;
47161;SDS011;32921;53.256;8.198;2023-09-08T10:46:10;537.28;;;483.92;;
47161;SDS011;32921;53.256;8.198;2023-09-08T10:48:41;529.95;;;477.25;;
47161;SDS011;32921;53.256;8.198;2023-09-08T10:51:08;541.80;;;487.00;;
47161;SDS011;32921;53.256;8.198;2023-09-08T10:53:38;537.08;;;480.70;;
47161;SDS011;32921;53.256;8.198;2023-09-08T10:56:05;572.45;;;515.58;;
47161;SDS011;32921;53.256;8.198;2023-09-08T11:01:02;528.42;;;478.15;;
47161;SDS011;32921;53.256;8.198;2023-09-08T11:06:04;559.88;;;503.15;;
47161;SDS011;32921;53.256;8.198;2023-09-08T11:08:30;567.38;;;509.67;;
47161;SDS011;32921;53.256;8.198;2023-09-08T11:10:56;560.75;;;503.80;;
47161;SDS011;32921;53.256;8.198;2023-09-08T11:13:22;549.10;;;494.77;;
47161;SDS011;32921;53.256;8.198;2023-09-08T11:15:52;544.72;;;490.35;;
47161;SDS011;32921;53.256;8.198;2023-09-08T11:18:25;577.13;;;523.03;;
47161;SDS011;32921;53.256;8.198;2023-09-08T11:20:51;531.40;;;483.35;;
47161;SDS011;32921;53.256;8.198;2023-09-08T11:23:18;548.85;;;497.92;;
47161;SDS011;32921;53.256;8.198;2023-09-08T11:25:44;555.20;;;505.90;;
47161;SDS011;32921;53.256;8.198;2023-09-08T11:28:10;531.13;;;479.50;;
47161;SDS011;32921;53.256;8.198;2023-09-08T11:30:38;538.83;;;485.88;;
47161;SDS011;32921;53.256;8.198;2023-09-08T11:33:05;523.83;;;473.40;;
47161;SDS011;32921;53.256;8.198;2023-09-08T11:35:39;566.70;;;508.38;;
47161;SDS011;32921;53.256;8.198;2023-09-08T11:38:05;556.40;;;501.05;;
47161;SDS011;32921;53.256;8.198;2023-09-08T11:40:31;539.90;;;489.75;;
47161;SDS011;32921;53.256;8.198;2023-09-08T11:42:59;552.03;;;500.15;;
47161;SDS011;32921;53.256;8.198;2023-09-08T11:45:26;525.90;;;475.88;;
47161;SDS011;32921;53.256;8.198;2023-09-08T11:47:52;529.40;;;478.15;;
47161;SDS011;32921;53.256;8.198;2023-09-08T11:50:18;573.90;;;515.83;;
47161;SDS011;32921;53.256;8.198;2023-09-08T11:52:45;575.00;;;517.65;;
47161;SDS011;32921;53.256;8.198;2023-09-08T11:55:12;590.92;;;530.38;;
47161;SDS011;32921;53.256;8.198;2023-09-08T11:57:38;557.13;;;502.35;;
47161;SDS011;32921;53.256;8.198;2023-09-08T12:00:05;560.13;;;505.20;;
47161;SDS011;32921;53.256;8.198;2023-09-08T12:02:34;578.42;;;522.17;;
47161;SDS011;32921;53.256;8.198;2023-09-08T12:05:02;558.58;;;505.25;;
47161;SDS011;32921;53.256;8.198;2023-09-08T12:07:28;571.08;;;517.95;;
47161;SDS011;32921;53.256;8.198;2023-09-08T12:09:54;579.75;;;523.35;;
47161;SDS011;32921;53.256;8.198;2023-09-08T12:12:20;547.78;;;496.13;;
47161;SDS011;32921;53.256;8.198;2023-09-08T12:14:46;568.03;;;513.53;;
47161;SDS011;32921;53.256;8.198;2023-09-08T12:17:12;546.33;;;496.17;;
47161;SDS011;32921;53.256;8.198;2023-09-08T12:19:42;576.40;;;520.85;;
47161;SDS011;32921;53.256;8.198;2023-09-08T12:22:08;542.55;;;489.90;;
47161;SDS011;32921;53.256;8.198;2023-09-08T12:27:38;547.78;;;496.73;;
47161;SDS011;32921;53.256;8.198;2023-09-08T12:30:04;559.40;;;505.77;;
47161;SDS011;32921;53.256;8.198;2023-09-08T12:32:31;550.85;;;498.73;;
47161;SDS011;32921;53.256;8.198;2023-09-08T12:34:58;554.33;;;503.58;;
47161;SDS011;32921;53.256;8.198;2023-09-08T12:37:26;584.10;;;530.25;;
47161;SDS011;32921;53.256;8.198;2023-09-08T12:39:57;563.83;;;511.10;;
47161;SDS011;32921;53.256;8.198;2023-09-08T12:42:25;547.70;;;497.90;;
47161;SDS011;32921;53.256;8.198;2023-09-08T12:44:54;553.47;;;500.85;;
47161;SDS011;32921;53.256;8.198;2023-09-08T12:47:20;529.97;;;481.77;;
47161;SDS011;32921;53.256;8.198;2023-09-08T12:49:46;548.95;;;498.77;;
47161;SDS011;32921;53.256;8.198;2023-09-08T12:52:12;557.60;;;505.98;;
47161;SDS011;32921;53.256;8.198;2023-09-08T12:54:38;566.10;;;513.15;;
47161;SDS011;32921;53.256;8.198;2023-09-08T12:57:04;548.00;;;497.52;;
47161;SDS011;32921;53.256;8.198;2023-09-08T12:59:30;552.47;;;503.48;;
47161;SDS011;32921;53.256;8.198;2023-09-08T13:01:56;560.40;;;511.50;;
47161;SDS011;32921;53.256;8.198;2023-09-08T13:04:23;541.05;;;492.02;;
47161;SDS011;32921;53.256;8.198;2023-09-08T13:06:49;547.72;;;496.38;;
47161;SDS011;32921;53.256;8.198;2023-09-08T13:09:15;546.80;;;496.73;;
47161;SDS011;32921;53.256;8.198;2023-09-08T13:11:41;530.83;;;481.95;;
47161;SDS011;32921;53.256;8.198;2023-09-08T13:14:07;552.83;;;502.33;;
47161;SDS011;32921;53.256;8.198;2023-09-08T13:16:34;541.78;;;493.08;;
47161;SDS011;32921;53.256;8.198;2023-09-08T13:19:00;555.85;;;508.50;;
47161;SDS011;32921;53.256;8.198;2023-09-08T13:21:26;543.20;;;495.08;;
47161;SDS011;32921;53.256;8.198;2023-09-08T13:23:51;569.75;;;519.97;;
47161;SDS011;32921;53.256;8.198;2023-09-08T13:26:17;556.30;;;505.27;;
47161;SDS011;32921;53.256;8.198;2023-09-08T13:28:43;561.30;;;510.90;;
47161;SDS011;32921;53.256;8.198;2023-09-08T13:31:09;542.80;;;490.55;;
47161;SDS011;32921;53.256;8.198;2023-09-08T13:33:35;514.80;;;468.52;;
47161;SDS011;32921;53.256;8.198;2023-09-08T13:36:01;548.80;;;499.45;;
47161;SDS011;32921;53.256;8.198;2023-09-08T13:38:27;528.05;;;481.15;;
47161;SDS011;32921;53.256;8.198;2023-09-08T13:40:53;549.60;;;499.80;;
47161;SDS011;32921;53.256;8.198;2023-09-08T13:43:19;540.47;;;491.95;;
47161;SDS011;32921;53.256;8.198;2023-09-08T13:45:45;532.33;;;485.50;;
47161;SDS011;32921;53.256;8.198;2023-09-08T13:48:11;541.40;;;490.75;;
47161;SDS011;32921;53.256;8.198;2023-09-08T13:50:37;539.70;;;491.13;;
47161;SDS011;32921;53.256;8.198;2023-09-08T13:53:06;543.67;;;496.17;;
47161;SDS011;32921;53.256;8.198;2023-09-08T13:55:32;528.33;;;483.98;;
47161;SDS011;32921;53.256;8.198;2023-09-08T13:57:58;551.00;;;503.10;;
47161;SDS011;32921;53.256;8.198;2023-09-08T14:00:24;530.35;;;485.48;;
47161;SDS011;32921;53.256;8.198;2023-09-08T14:02:50;553.17;;;506.92;;
47161;SDS011;32921;53.256;8.198;2023-09-08T14:05:16;528.63;;;482.77;;
47161;SDS011;32921;53.256;8.198;2023-09-08T14:07:42;537.95;;;491.20;;
47161;SDS011;32921;53.256;8.198;2023-09-08T14:10:08;541.75;;;494.88;;
47161;SDS011;32921;53.256;8.198;2023-09-08T14:12:34;539.28;;;493.20;;